sensor_id;sensor_type;location;lat;lon;timestamp;temperature;humidity
74537;SHT31;63013;51.104;-115.370;2023-07-02T00:00:06;24.63;36.86
74537;SHT31;63013;51.104;-115.370;2023-07-02T00:02:35;24.65;37.05
74537;SHT31;63013;51.104;-115.370;2023-07-02T00:05:03;24.66;36.99
74537;SHT31;63013;51.104;-115.370;2023-07-02T00:07:31;24.69;36.81
74537;SHT31;63013;51.104;-115.370;2023-07-02T00:09:59;24.71;36.79
74537;SHT31;63013;51.104;-115.370;2023-07-02T00:12:26;24.71;36.76
74537;SHT31;63013;51.104;-115.370;2023-07-02T00:14:53;24.72;36.68
74537;SHT31;63013;51.104;-115.370;2023-07-02T00:17:20;24.73;36.59
74537;SHT31;63013;51.104;-115.370;2023-07-02T00:19:48;24.75;36.48
74537;SHT31;63013;51.104;-115.370;2023-07-02T00:22:17;24.76;36.47
74537;SHT31;63013;51.104;-115.370;2023-07-02T00:24:44;24.77;36.47
74537;SHT31;63013;51.104;-115.370;2023-07-02T00:27:11;24.77;36.63
74537;SHT31;63013;51.104;-115.370;2023-07-02T00:29:38;24.77;36.68
74537;SHT31;63013;51.104;-115.370;2023-07-02T00:32:05;24.77;36.63
74537;SHT31;63013;51.104;-115.370;2023-07-02T00:34:33;24.78;36.64
74537;SHT31;63013;51.104;-115.370;2023-07-02T00:36:59;24.76;36.64
74537;SHT31;63013;51.104;-115.370;2023-07-02T00:39:27;24.78;36.68
74537;SHT31;63013;51.104;-115.370;2023-07-02T00:41:53;24.77;36.68
74537;SHT31;63013;51.104;-115.370;2023-07-02T00:44:27;24.77;36.69
74537;SHT31;63013;51.104;-115.370;2023-07-02T00:46:54;24.77;36.75
74537;SHT31;63013;51.104;-115.370;2023-07-02T00:49:21;24.78;36.63
74537;SHT31;63013;51.104;-115.370;2023-07-02T00:51:49;24.78;36.55
74537;SHT31;63013;51.104;-115.370;2023-07-02T00:54:16;24.78;36.46
74537;SHT31;63013;51.104;-115.370;2023-07-02T00:56:43;24.77;36.40
74537;SHT31;63013;51.104;-115.370;2023-07-02T00:59:11;24.77;36.35
74537;SHT31;63013;51.104;-115.370;2023-07-02T01:01:38;24.77;36.10
74537;SHT31;63013;51.104;-115.370;2023-07-02T01:04:05;24.78;35.93
74537;SHT31;63013;51.104;-115.370;2023-07-02T01:06:38;24.77;35.89
74537;SHT31;63013;51.104;-115.370;2023-07-02T01:09:06;24.78;35.92
74537;SHT31;63013;51.104;-115.370;2023-07-02T01:11:35;24.78;36.07
74537;SHT31;63013;51.104;-115.370;2023-07-02T01:17:09;24.79;36.09
74537;SHT31;63013;51.104;-115.370;2023-07-02T01:19:42;24.79;35.91
74537;SHT31;63013;51.104;-115.370;2023-07-02T01:22:22;24.80;35.87
74537;SHT31;63013;51.104;-115.370;2023-07-02T01:24:54;24.80;36.02
74537;SHT31;63013;51.104;-115.370;2023-07-02T01:27:22;24.80;36.08
74537;SHT31;63013;51.104;-115.370;2023-07-02T01:29:53;24.80;35.90
74537;SHT31;63013;51.104;-115.370;2023-07-02T01:32:20;24.81;35.84
74537;SHT31;63013;51.104;-115.370;2023-07-02T01:34:47;24.81;35.91
74537;SHT31;63013;51.104;-115.370;2023-07-02T01:37:15;24.81;35.94
74537;SHT31;63013;51.104;-115.370;2023-07-02T01:39:43;24.81;36.04
74537;SHT31;63013;51.104;-115.370;2023-07-02T01:42:10;24.82;36.06
74537;SHT31;63013;51.104;-115.370;2023-07-02T01:44:43;24.81;36.01
74537;SHT31;63013;51.104;-115.370;2023-07-02T01:47:13;24.83;35.93
74537;SHT31;63013;51.104;-115.370;2023-07-02T01:49:41;24.83;35.88
74537;SHT31;63013;51.104;-115.370;2023-07-02T01:52:08;24.83;35.88
74537;SHT31;63013;51.104;-115.370;2023-07-02T01:54:35;24.83;35.81
74537;SHT31;63013;51.104;-115.370;2023-07-02T01:57:02;24.83;35.70
74537;SHT31;63013;51.104;-115.370;2023-07-02T01:59:30;24.84;35.41
74537;SHT31;63013;51.104;-115.370;2023-07-02T02:01:57;24.84;35.75
74537;SHT31;63013;51.104;-115.370;2023-07-02T02:04:24;24.84;36.80
74537;SHT31;63013;51.104;-115.370;2023-07-02T02:06:51;24.84;36.81
74537;SHT31;63013;51.104;-115.370;2023-07-02T02:09:19;24.84;36.59
74537;SHT31;63013;51.104;-115.370;2023-07-02T02:11:47;24.84;36.70
74537;SHT31;63013;51.104;-115.370;2023-07-02T02:14:17;24.86;37.10
74537;SHT31;63013;51.104;-115.370;2023-07-02T02:16:45;24.86;37.30
74537;SHT31;63013;51.104;-115.370;2023-07-02T02:19:12;24.86;37.33
74537;SHT31;63013;51.104;-115.370;2023-07-02T02:21:40;24.86;37.32
74537;SHT31;63013;51.104;-115.370;2023-07-02T02:24:08;24.87;37.45
74537;SHT31;63013;51.104;-115.370;2023-07-02T02:26:35;24.86;38.07
74537;SHT31;63013;51.104;-115.370;2023-07-02T02:29:02;24.84;38.34
74537;SHT31;63013;51.104;-115.370;2023-07-02T02:31:29;24.83;38.45
74537;SHT31;63013;51.104;-115.370;2023-07-02T02:33:56;24.81;38.54
74537;SHT31;63013;51.104;-115.370;2023-07-02T02:36:23;24.83;38.46
74537;SHT31;63013;51.104;-115.370;2023-07-02T02:38:51;24.83;38.66
74537;SHT31;63013;51.104;-115.370;2023-07-02T02:41:18;24.82;38.69
74537;SHT31;63013;51.104;-115.370;2023-07-02T02:43:45;24.83;38.72
74537;SHT31;63013;51.104;-115.370;2023-07-02T02:46:19;24.82;38.80
74537;SHT31;63013;51.104;-115.370;2023-07-02T02:48:48;24.80;38.81
74537;SHT31;63013;51.104;-115.370;2023-07-02T02:51:15;24.80;38.87
74537;SHT31;63013;51.104;-115.370;2023-07-02T02:53:42;24.78;38.89
74537;SHT31;63013;51.104;-115.370;2023-07-02T02:56:09;24.79;38.96
74537;SHT31;63013;51.104;-115.370;2023-07-02T02:58:36;24.79;38.92
74537;SHT31;63013;51.104;-115.370;2023-07-02T03:01:03;24.79;38.96
74537;SHT31;63013;51.104;-115.370;2023-07-02T03:03:38;24.77;39.02
74537;SHT31;63013;51.104;-115.370;2023-07-02T03:06:10;24.77;39.00
74537;SHT31;63013;51.104;-115.370;2023-07-02T03:08:40;24.77;38.99
74537;SHT31;63013;51.104;-115.370;2023-07-02T03:11:07;24.79;38.96
74537;SHT31;63013;51.104;-115.370;2023-07-02T03:13:34;24.80;38.92
74537;SHT31;63013;51.104;-115.370;2023-07-02T03:16:01;24.81;38.98
74537;SHT31;63013;51.104;-115.370;2023-07-02T03:18:28;24.81;39.10
74537;SHT31;63013;51.104;-115.370;2023-07-02T03:20:55;24.79;39.13
74537;SHT31;63013;51.104;-115.370;2023-07-02T03:23:22;24.79;39.20
74537;SHT31;63013;51.104;-115.370;2023-07-02T03:25:49;24.79;39.18
74537;SHT31;63013;51.104;-115.370;2023-07-02T03:28:16;24.78;39.21
74537;SHT31;63013;51.104;-115.370;2023-07-02T03:30:43;24.79;39.22
74537;SHT31;63013;51.104;-115.370;2023-07-02T03:33:11;24.79;39.26
74537;SHT31;63013;51.104;-115.370;2023-07-02T03:35:38;24.78;39.29
74537;SHT31;63013;51.104;-115.370;2023-07-02T03:38:05;24.77;39.31
74537;SHT31;63013;51.104;-115.370;2023-07-02T03:40:32;24.76;39.36
74537;SHT31;63013;51.104;-115.370;2023-07-02T03:42:59;24.76;39.39
74537;SHT31;63013;51.104;-115.370;2023-07-02T03:45:26;24.74;39.42
74537;SHT31;63013;51.104;-115.370;2023-07-02T03:47:53;24.72;39.45
74537;SHT31;63013;51.104;-115.370;2023-07-02T03:50:21;24.71;39.50
74537;SHT31;63013;51.104;-115.370;2023-07-02T03:52:48;24.70;39.50
74537;SHT31;63013;51.104;-115.370;2023-07-02T03:55:15;24.68;39.50
74537;SHT31;63013;51.104;-115.370;2023-07-02T03:57:43;24.66;39.54
74537;SHT31;63013;51.104;-115.370;2023-07-02T04:00:13;24.64;39.59
74537;SHT31;63013;51.104;-115.370;2023-07-02T04:02:41;24.63;39.60
74537;SHT31;63013;51.104;-115.370;2023-07-02T04:05:08;24.62;39.67
74537;SHT31;63013;51.104;-115.370;2023-07-02T04:07:35;24.62;39.60
74537;SHT31;63013;51.104;-115.370;2023-07-02T04:10:02;24.63;39.60
74537;SHT31;63013;51.104;-115.370;2023-07-02T04:12:30;24.61;39.65
74537;SHT31;63013;51.104;-115.370;2023-07-02T04:14:57;24.61;39.66
74537;SHT31;63013;51.104;-115.370;2023-07-02T04:17:25;24.57;39.70
74537;SHT31;63013;51.104;-115.370;2023-07-02T04:19:53;24.57;39.70
74537;SHT31;63013;51.104;-115.370;2023-07-02T04:22:21;24.57;39.70
74537;SHT31;63013;51.104;-115.370;2023-07-02T04:24:48;24.56;39.69
74537;SHT31;63013;51.104;-115.370;2023-07-02T04:27:15;24.55;39.70
74537;SHT31;63013;51.104;-115.370;2023-07-02T04:29:45;24.52;39.65
74537;SHT31;63013;51.104;-115.370;2023-07-02T04:32:12;24.49;39.70
74537;SHT31;63013;51.104;-115.370;2023-07-02T04:34:39;24.47;39.70
74537;SHT31;63013;51.104;-115.370;2023-07-02T04:37:09;24.46;39.70
74537;SHT31;63013;51.104;-115.370;2023-07-02T04:39:37;24.45;39.67
74537;SHT31;63013;51.104;-115.370;2023-07-02T04:42:03;24.45;39.64
74537;SHT31;63013;51.104;-115.370;2023-07-02T04:44:31;24.43;39.62
74537;SHT31;63013;51.104;-115.370;2023-07-02T04:47:01;24.43;39.67
74537;SHT31;63013;51.104;-115.370;2023-07-02T04:49:29;24.43;39.66
74537;SHT31;63013;51.104;-115.370;2023-07-02T04:51:56;24.42;39.60
74537;SHT31;63013;51.104;-115.370;2023-07-02T04:54:23;24.42;39.60
74537;SHT31;63013;51.104;-115.370;2023-07-02T04:56:50;24.41;39.60
74537;SHT31;63013;51.104;-115.370;2023-07-02T04:59:19;24.38;39.55
74537;SHT31;63013;51.104;-115.370;2023-07-02T05:01:47;24.35;39.55
74537;SHT31;63013;51.104;-115.370;2023-07-02T05:04:14;24.31;39.56
74537;SHT31;63013;51.104;-115.370;2023-07-02T05:06:42;24.31;39.58
74537;SHT31;63013;51.104;-115.370;2023-07-02T05:09:09;24.30;39.60
74537;SHT31;63013;51.104;-115.370;2023-07-02T05:11:36;24.32;39.64
74537;SHT31;63013;51.104;-115.370;2023-07-02T05:14:03;24.34;39.60
74537;SHT31;63013;51.104;-115.370;2023-07-02T05:16:30;24.36;39.52
74537;SHT31;63013;51.104;-115.370;2023-07-02T05:18:57;24.36;39.53
74537;SHT31;63013;51.104;-115.370;2023-07-02T05:21:24;24.38;39.53
74537;SHT31;63013;51.104;-115.370;2023-07-02T05:23:51;24.38;39.51
74537;SHT31;63013;51.104;-115.370;2023-07-02T05:26:18;24.38;39.54
74537;SHT31;63013;51.104;-115.370;2023-07-02T05:28:45;24.39;39.53
74537;SHT31;63013;51.104;-115.370;2023-07-02T05:31:12;24.39;39.49
74537;SHT31;63013;51.104;-115.370;2023-07-02T05:33:38;24.40;39.46
74537;SHT31;63013;51.104;-115.370;2023-07-02T05:36:06;24.40;39.49
74537;SHT31;63013;51.104;-115.370;2023-07-02T05:38:33;24.39;39.44
74537;SHT31;63013;51.104;-115.370;2023-07-02T05:41:00;24.40;39.41
74537;SHT31;63013;51.104;-115.370;2023-07-02T05:43:28;24.39;39.42
74537;SHT31;63013;51.104;-115.370;2023-07-02T05:45:57;24.38;39.48
74537;SHT31;63013;51.104;-115.370;2023-07-02T05:48:28;24.39;39.48
74537;SHT31;63013;51.104;-115.370;2023-07-02T05:50:55;24.39;39.48
74537;SHT31;63013;51.104;-115.370;2023-07-02T05:53:22;24.38;39.50
74537;SHT31;63013;51.104;-115.370;2023-07-02T05:55:49;24.38;39.50
74537;SHT31;63013;51.104;-115.370;2023-07-02T05:58:15;24.37;39.43
74537;SHT31;63013;51.104;-115.370;2023-07-02T06:00:42;24.37;39.45
74537;SHT31;63013;51.104;-115.370;2023-07-02T06:03:15;24.36;39.45
74537;SHT31;63013;51.104;-115.370;2023-07-02T06:05:46;24.35;39.43
74537;SHT31;63013;51.104;-115.370;2023-07-02T06:08:15;24.35;39.42
74537;SHT31;63013;51.104;-115.370;2023-07-02T06:10:43;24.34;39.41
74537;SHT31;63013;51.104;-115.370;2023-07-02T06:13:13;24.33;39.36
74537;SHT31;63013;51.104;-115.370;2023-07-02T06:15:41;24.32;39.39
74537;SHT31;63013;51.104;-115.370;2023-07-02T06:18:08;24.31;39.39
74537;SHT31;63013;51.104;-115.370;2023-07-02T06:20:35;24.31;39.39
74537;SHT31;63013;51.104;-115.370;2023-07-02T06:23:03;24.29;39.34
74537;SHT31;63013;51.104;-115.370;2023-07-02T06:25:30;24.27;39.30
74537;SHT31;63013;51.104;-115.370;2023-07-02T06:27:58;24.27;39.32
74537;SHT31;63013;51.104;-115.370;2023-07-02T06:30:26;24.27;39.31
74537;SHT31;63013;51.104;-115.370;2023-07-02T06:32:53;24.25;39.32
74537;SHT31;63013;51.104;-115.370;2023-07-02T06:35:21;24.25;39.29
74537;SHT31;63013;51.104;-115.370;2023-07-02T06:37:47;24.24;39.24
74537;SHT31;63013;51.104;-115.370;2023-07-02T06:40:15;24.23;39.14
74537;SHT31;63013;51.104;-115.370;2023-07-02T06:42:42;24.20;39.18
74537;SHT31;63013;51.104;-115.370;2023-07-02T06:45:09;24.21;39.13
74537;SHT31;63013;51.104;-115.370;2023-07-02T06:47:37;24.20;39.13
74537;SHT31;63013;51.104;-115.370;2023-07-02T06:50:04;24.17;39.03
74537;SHT31;63013;51.104;-115.370;2023-07-02T06:52:31;24.16;39.02
74537;SHT31;63013;51.104;-115.370;2023-07-02T06:54:58;24.15;39.01
74537;SHT31;63013;51.104;-115.370;2023-07-02T06:57:25;24.13;38.90
74537;SHT31;63013;51.104;-115.370;2023-07-02T06:59:56;24.12;38.83
74537;SHT31;63013;51.104;-115.370;2023-07-02T07:02:27;24.10;38.86
74537;SHT31;63013;51.104;-115.370;2023-07-02T07:04:54;24.08;38.85
74537;SHT31;63013;51.104;-115.370;2023-07-02T07:07:21;24.06;38.82
74537;SHT31;63013;51.104;-115.370;2023-07-02T07:09:48;24.05;38.87
74537;SHT31;63013;51.104;-115.370;2023-07-02T07:12:15;24.03;38.83
74537;SHT31;63013;51.104;-115.370;2023-07-02T07:14:42;24.03;38.78
74537;SHT31;63013;51.104;-115.370;2023-07-02T07:17:09;24.01;38.85
74537;SHT31;63013;51.104;-115.370;2023-07-02T07:19:36;23.99;38.86
74537;SHT31;63013;51.104;-115.370;2023-07-02T07:22:03;23.98;38.92
74537;SHT31;63013;51.104;-115.370;2023-07-02T07:24:30;23.97;39.00
74537;SHT31;63013;51.104;-115.370;2023-07-02T07:26:57;23.97;38.97
74537;SHT31;63013;51.104;-115.370;2023-07-02T07:29:24;23.96;38.87
74537;SHT31;63013;51.104;-115.370;2023-07-02T07:31:51;23.94;38.86
74537;SHT31;63013;51.104;-115.370;2023-07-02T07:34:18;23.93;38.83
74537;SHT31;63013;51.104;-115.370;2023-07-02T07:36:45;23.91;38.80
74537;SHT31;63013;51.104;-115.370;2023-07-02T07:39:12;23.91;38.81
74537;SHT31;63013;51.104;-115.370;2023-07-02T07:41:39;23.89;38.77
74537;SHT31;63013;51.104;-115.370;2023-07-02T07:44:06;23.87;38.79
74537;SHT31;63013;51.104;-115.370;2023-07-02T07:46:36;23.86;38.79
74537;SHT31;63013;51.104;-115.370;2023-07-02T07:49:03;23.85;38.71
74537;SHT31;63013;51.104;-115.370;2023-07-02T07:51:31;23.83;38.73
74537;SHT31;63013;51.104;-115.370;2023-07-02T07:53:57;23.82;38.62
74537;SHT31;63013;51.104;-115.370;2023-07-02T07:56:24;23.80;38.66
74537;SHT31;63013;51.104;-115.370;2023-07-02T07:58:51;23.80;38.60
74537;SHT31;63013;51.104;-115.370;2023-07-02T08:01:18;23.79;38.57
74537;SHT31;63013;51.104;-115.370;2023-07-02T08:03:46;23.77;38.52
74537;SHT31;63013;51.104;-115.370;2023-07-02T08:06:13;23.75;38.56
74537;SHT31;63013;51.104;-115.370;2023-07-02T08:08:40;23.74;38.60
74537;SHT31;63013;51.104;-115.370;2023-07-02T08:11:07;23.73;38.57
74537;SHT31;63013;51.104;-115.370;2023-07-02T08:13:34;23.73;38.54
74537;SHT31;63013;51.104;-115.370;2023-07-02T08:16:01;23.71;38.47
74537;SHT31;63013;51.104;-115.370;2023-07-02T08:18:28;23.70;38.47
74537;SHT31;63013;51.104;-115.370;2023-07-02T08:20:55;23.69;38.45
74537;SHT31;63013;51.104;-115.370;2023-07-02T08:23:22;23.67;38.36
74537;SHT31;63013;51.104;-115.370;2023-07-02T08:25:50;23.66;38.40
74537;SHT31;63013;51.104;-115.370;2023-07-02T08:28:17;23.64;38.29
74537;SHT31;63013;51.104;-115.370;2023-07-02T08:30:44;23.64;38.30
74537;SHT31;63013;51.104;-115.370;2023-07-02T08:33:11;23.63;38.32
74537;SHT31;63013;51.104;-115.370;2023-07-02T08:35:38;23.61;38.30
74537;SHT31;63013;51.104;-115.370;2023-07-02T08:38:05;23.60;38.28
74537;SHT31;63013;51.104;-115.370;2023-07-02T08:40:33;23.59;38.17
74537;SHT31;63013;51.104;-115.370;2023-07-02T08:43:00;23.58;38.25
74537;SHT31;63013;51.104;-115.370;2023-07-02T08:45:27;23.57;38.24
74537;SHT31;63013;51.104;-115.370;2023-07-02T08:47:55;23.54;38.28
74537;SHT31;63013;51.104;-115.370;2023-07-02T08:50:23;23.53;38.29
74537;SHT31;63013;51.104;-115.370;2023-07-02T08:52:50;23.52;38.22
74537;SHT31;63013;51.104;-115.370;2023-07-02T08:55:20;23.51;38.14
74537;SHT31;63013;51.104;-115.370;2023-07-02T08:57:49;23.49;38.13
74537;SHT31;63013;51.104;-115.370;2023-07-02T09:00:19;23.48;38.17
74537;SHT31;63013;51.104;-115.370;2023-07-02T09:02:47;23.48;38.22
74537;SHT31;63013;51.104;-115.370;2023-07-02T09:05:14;23.46;38.17
74537;SHT31;63013;51.104;-115.370;2023-07-02T09:07:47;23.45;38.08
74537;SHT31;63013;51.104;-115.370;2023-07-02T09:13:05;23.42;38.09
74537;SHT31;63013;51.104;-115.370;2023-07-02T09:15:40;23.41;38.01
74537;SHT31;63013;51.104;-115.370;2023-07-02T09:18:14;23.39;37.92
74537;SHT31;63013;51.104;-115.370;2023-07-02T09:20:53;23.38;37.92
74537;SHT31;63013;51.104;-115.370;2023-07-02T09:23:21;23.36;37.85
74537;SHT31;63013;51.104;-115.370;2023-07-02T09:25:48;23.34;37.86
74537;SHT31;63013;51.104;-115.370;2023-07-02T09:30:58;23.31;37.87
74537;SHT31;63013;51.104;-115.370;2023-07-02T09:33:25;23.29;37.83
74537;SHT31;63013;51.104;-115.370;2023-07-02T09:35:54;23.28;37.79
74537;SHT31;63013;51.104;-115.370;2023-07-02T09:38:22;23.27;37.69
74537;SHT31;63013;51.104;-115.370;2023-07-02T09:40:49;23.25;37.60
74537;SHT31;63013;51.104;-115.370;2023-07-02T09:43:18;23.23;37.63
74537;SHT31;63013;51.104;-115.370;2023-07-02T09:45:47;23.21;37.70
74537;SHT31;63013;51.104;-115.370;2023-07-02T09:48:17;23.19;37.61
74537;SHT31;63013;51.104;-115.370;2023-07-02T09:50:50;23.17;37.65
74537;SHT31;63013;51.104;-115.370;2023-07-02T09:53:18;23.16;37.68
74537;SHT31;63013;51.104;-115.370;2023-07-02T09:55:45;23.14;37.64
74537;SHT31;63013;51.104;-115.370;2023-07-02T09:58:13;23.13;37.67
74537;SHT31;63013;51.104;-115.370;2023-07-02T10:00:41;23.11;37.60
74537;SHT31;63013;51.104;-115.370;2023-07-02T10:03:08;23.10;37.57
74537;SHT31;63013;51.104;-115.370;2023-07-02T10:05:36;23.08;37.65
74537;SHT31;63013;51.104;-115.370;2023-07-02T10:08:15;23.07;37.63
74537;SHT31;63013;51.104;-115.370;2023-07-02T10:10:43;23.05;37.64
74537;SHT31;63013;51.104;-115.370;2023-07-02T10:13:10;23.04;37.69
74537;SHT31;63013;51.104;-115.370;2023-07-02T10:15:37;23.02;37.70
74537;SHT31;63013;51.104;-115.370;2023-07-02T10:18:05;23.00;37.71
74537;SHT31;63013;51.104;-115.370;2023-07-02T10:20:36;22.98;37.61
74537;SHT31;63013;51.104;-115.370;2023-07-02T10:23:06;22.97;37.56
74537;SHT31;63013;51.104;-115.370;2023-07-02T10:25:35;22.95;37.63
74537;SHT31;63013;51.104;-115.370;2023-07-02T10:28:19;22.94;37.72
74537;SHT31;63013;51.104;-115.370;2023-07-02T10:30:49;22.92;37.67
74537;SHT31;63013;51.104;-115.370;2023-07-02T10:33:19;22.90;37.69
74537;SHT31;63013;51.104;-115.370;2023-07-02T10:35:47;22.89;37.74
74537;SHT31;63013;51.104;-115.370;2023-07-02T10:40:59;22.86;37.79
74537;SHT31;63013;51.104;-115.370;2023-07-02T10:43:27;22.85;37.75
74537;SHT31;63013;51.104;-115.370;2023-07-02T10:45:56;22.84;37.69
74537;SHT31;63013;51.104;-115.370;2023-07-02T10:48:28;22.82;37.65
74537;SHT31;63013;51.104;-115.370;2023-07-02T10:50:55;22.82;37.74
74537;SHT31;63013;51.104;-115.370;2023-07-02T10:53:23;22.80;37.69
74537;SHT31;63013;51.104;-115.370;2023-07-02T10:55:54;22.79;37.62
74537;SHT31;63013;51.104;-115.370;2023-07-02T10:58:22;22.77;37.63
74537;SHT31;63013;51.104;-115.370;2023-07-02T11:00:50;22.76;37.69
74537;SHT31;63013;51.104;-115.370;2023-07-02T11:03:19;22.75;37.62
74537;SHT31;63013;51.104;-115.370;2023-07-02T11:05:52;22.73;37.50
74537;SHT31;63013;51.104;-115.370;2023-07-02T11:08:19;22.71;37.57
74537;SHT31;63013;51.104;-115.370;2023-07-02T11:10:46;22.70;37.58
74537;SHT31;63013;51.104;-115.370;2023-07-02T11:13:15;22.69;37.60
74537;SHT31;63013;51.104;-115.370;2023-07-02T11:15:44;22.67;37.54
74537;SHT31;63013;51.104;-115.370;2023-07-02T11:18:16;22.66;37.67
74537;SHT31;63013;51.104;-115.370;2023-07-02T11:20:46;22.66;37.68
74537;SHT31;63013;51.104;-115.370;2023-07-02T11:23:17;22.65;37.71
74537;SHT31;63013;51.104;-115.370;2023-07-02T11:26:00;22.63;37.62
74537;SHT31;63013;51.104;-115.370;2023-07-02T11:28:29;22.60;37.68
74537;SHT31;63013;51.104;-115.370;2023-07-02T11:31:00;22.59;37.72
74537;SHT31;63013;51.104;-115.370;2023-07-02T11:33:36;22.58;37.72
74537;SHT31;63013;51.104;-115.370;2023-07-02T11:36:18;22.55;37.70
74537;SHT31;63013;51.104;-115.370;2023-07-02T11:38:51;22.54;37.70
74537;SHT31;63013;51.104;-115.370;2023-07-02T11:41:21;22.51;37.73
74537;SHT31;63013;51.104;-115.370;2023-07-02T11:43:48;22.51;37.74
74537;SHT31;63013;51.104;-115.370;2023-07-02T11:46:14;22.49;37.66
74537;SHT31;63013;51.104;-115.370;2023-07-02T11:48:41;22.47;37.62
74537;SHT31;63013;51.104;-115.370;2023-07-02T11:51:09;22.45;37.61
74537;SHT31;63013;51.104;-115.370;2023-07-02T11:53:36;22.42;37.56
74537;SHT31;63013;51.104;-115.370;2023-07-02T11:56:03;22.41;37.56
74537;SHT31;63013;51.104;-115.370;2023-07-02T11:58:30;22.39;37.69
74537;SHT31;63013;51.104;-115.370;2023-07-02T12:00:57;22.37;37.67
74537;SHT31;63013;51.104;-115.370;2023-07-02T12:03:24;22.37;37.71
74537;SHT31;63013;51.104;-115.370;2023-07-02T12:05:52;22.35;37.69
74537;SHT31;63013;51.104;-115.370;2023-07-02T12:08:19;22.34;37.73
74537;SHT31;63013;51.104;-115.370;2023-07-02T12:10:46;22.32;37.76
74537;SHT31;63013;51.104;-115.370;2023-07-02T12:13:13;22.31;37.77
74537;SHT31;63013;51.104;-115.370;2023-07-02T12:15:40;22.30;37.71
74537;SHT31;63013;51.104;-115.370;2023-07-02T12:18:08;22.27;37.75
74537;SHT31;63013;51.104;-115.370;2023-07-02T12:20:35;22.26;37.74
74537;SHT31;63013;51.104;-115.370;2023-07-02T12:23:03;22.25;37.69
74537;SHT31;63013;51.104;-115.370;2023-07-02T12:25:31;22.23;37.75
74537;SHT31;63013;51.104;-115.370;2023-07-02T12:27:58;22.22;37.81
74537;SHT31;63013;51.104;-115.370;2023-07-02T12:30:25;22.20;37.87
74537;SHT31;63013;51.104;-115.370;2023-07-02T12:32:52;22.18;37.87
74537;SHT31;63013;51.104;-115.370;2023-07-02T12:35:19;22.16;37.83
74537;SHT31;63013;51.104;-115.370;2023-07-02T12:37:47;22.15;37.92
74537;SHT31;63013;51.104;-115.370;2023-07-02T12:40:16;22.14;37.91
74537;SHT31;63013;51.104;-115.370;2023-07-02T12:42:45;22.11;37.82
74537;SHT31;63013;51.104;-115.370;2023-07-02T12:45:13;22.11;37.83
74537;SHT31;63013;51.104;-115.370;2023-07-02T12:47:41;22.10;37.90
74537;SHT31;63013;51.104;-115.370;2023-07-02T12:50:08;22.08;37.91
74537;SHT31;63013;51.104;-115.370;2023-07-02T12:52:36;22.07;37.92
74537;SHT31;63013;51.104;-115.370;2023-07-02T12:55:04;22.06;37.87
74537;SHT31;63013;51.104;-115.370;2023-07-02T12:57:31;22.04;37.87
74537;SHT31;63013;51.104;-115.370;2023-07-02T12:59:58;22.03;37.88
74537;SHT31;63013;51.104;-115.370;2023-07-02T13:02:26;22.02;37.87
74537;SHT31;63013;51.104;-115.370;2023-07-02T13:04:53;22.00;37.81
74537;SHT31;63013;51.104;-115.370;2023-07-02T13:07:20;21.99;37.96
74537;SHT31;63013;51.104;-115.370;2023-07-02T13:09:49;21.98;37.93
74537;SHT31;63013;51.104;-115.370;2023-07-02T13:12:17;21.95;37.88
74537;SHT31;63013;51.104;-115.370;2023-07-02T13:14:44;21.95;37.90
74537;SHT31;63013;51.104;-115.370;2023-07-02T13:17:11;21.93;38.04
74537;SHT31;63013;51.104;-115.370;2023-07-02T13:19:38;21.93;38.09
74537;SHT31;63013;51.104;-115.370;2023-07-02T13:22:05;21.92;37.86
74537;SHT31;63013;51.104;-115.370;2023-07-02T13:24:33;21.89;37.88
74537;SHT31;63013;51.104;-115.370;2023-07-02T13:27:04;21.90;37.97
74537;SHT31;63013;51.104;-115.370;2023-07-02T13:29:39;21.87;37.84
74537;SHT31;63013;51.104;-115.370;2023-07-02T13:32:07;21.87;37.76
74537;SHT31;63013;51.104;-115.370;2023-07-02T13:34:34;21.85;37.75
74537;SHT31;63013;51.104;-115.370;2023-07-02T13:37:01;21.84;37.91
74537;SHT31;63013;51.104;-115.370;2023-07-02T13:39:29;21.84;37.99
74537;SHT31;63013;51.104;-115.370;2023-07-02T13:41:56;21.82;37.72
74537;SHT31;63013;51.104;-115.370;2023-07-02T13:44:23;21.81;37.84
74537;SHT31;63013;51.104;-115.370;2023-07-02T13:46:50;21.80;37.97
74537;SHT31;63013;51.104;-115.370;2023-07-02T13:49:18;21.80;37.86
74537;SHT31;63013;51.104;-115.370;2023-07-02T13:51:46;21.79;38.02
74537;SHT31;63013;51.104;-115.370;2023-07-02T13:54:16;21.79;38.18
74537;SHT31;63013;51.104;-115.370;2023-07-02T13:56:44;21.79;38.09
74537;SHT31;63013;51.104;-115.370;2023-07-02T13:59:13;21.77;38.16
74537;SHT31;63013;51.104;-115.370;2023-07-02T14:01:42;21.76;38.09
74537;SHT31;63013;51.104;-115.370;2023-07-02T14:04:10;21.75;38.02
74537;SHT31;63013;51.104;-115.370;2023-07-02T14:06:38;21.75;38.17
74537;SHT31;63013;51.104;-115.370;2023-07-02T14:09:06;21.75;38.19
74537;SHT31;63013;51.104;-115.370;2023-07-02T14:11:35;21.75;38.23
74537;SHT31;63013;51.104;-115.370;2023-07-02T14:14:04;21.72;38.03
74537;SHT31;63013;51.104;-115.370;2023-07-02T14:16:31;21.70;37.96
74537;SHT31;63013;51.104;-115.370;2023-07-02T14:18:58;21.68;38.02
74537;SHT31;63013;51.104;-115.370;2023-07-02T14:21:25;21.67;38.10
74537;SHT31;63013;51.104;-115.370;2023-07-02T14:23:53;21.68;38.16
74537;SHT31;63013;51.104;-115.370;2023-07-02T14:26:20;21.68;38.09
74537;SHT31;63013;51.104;-115.370;2023-07-02T14:28:47;21.68;38.14
74537;SHT31;63013;51.104;-115.370;2023-07-02T14:31:14;21.68;38.29
74537;SHT31;63013;51.104;-115.370;2023-07-02T14:33:41;21.66;38.30
74537;SHT31;63013;51.104;-115.370;2023-07-02T14:36:08;21.64;38.13
74537;SHT31;63013;51.104;-115.370;2023-07-02T14:38:35;21.64;38.14
74537;SHT31;63013;51.104;-115.370;2023-07-02T14:41:03;21.62;38.22
74537;SHT31;63013;51.104;-115.370;2023-07-02T14:43:30;21.61;38.27
74537;SHT31;63013;51.104;-115.370;2023-07-02T14:45:58;21.62;38.48
74537;SHT31;63013;51.104;-115.370;2023-07-02T14:48:27;21.63;38.91
74537;SHT31;63013;51.104;-115.370;2023-07-02T14:50:56;21.60;38.83
74537;SHT31;63013;51.104;-115.370;2023-07-02T14:53:26;21.60;38.79
74537;SHT31;63013;51.104;-115.370;2023-07-02T14:55:55;21.59;38.83
74537;SHT31;63013;51.104;-115.370;2023-07-02T14:58:26;21.60;38.82
74537;SHT31;63013;51.104;-115.370;2023-07-02T15:00:55;21.60;38.68
74537;SHT31;63013;51.104;-115.370;2023-07-02T15:03:24;21.60;38.74